createdAt,value
2017-12-30T00:00:55.250Z,95.69
2017-12-30T00:03:22.054Z,95.31
2017-12-30T00:05:48.864Z,95.54
2017-12-30T00:08:16.425Z,95.37
2017-12-30T00:10:43.266Z,94.95
2017-12-30T00:13:10.156Z,95.08
2017-12-30T00:15:36.962Z,95.08
2017-12-30T00:18:04.958Z,94.86
2017-12-30T00:20:31.809Z,94.76
2017-12-30T00:22:58.584Z,94.86
2017-12-30T00:25:25.367Z,93.94
2017-12-30T00:27:52.180Z,93.77
2017-12-30T00:30:18.965Z,93.82
2017-12-30T00:32:45.789Z,93.75
2017-12-30T00:35:13.336Z,94.00
2017-12-30T00:37:40.364Z,93.57
2017-12-30T00:40:07.148Z,92.41
2017-12-30T00:42:33.956Z,93.24
2017-12-30T00:45:00.724Z,92.74
2017-12-30T00:47:27.518Z,92.74
2017-12-30T00:49:56.283Z,91.90
2017-12-30T00:52:23.124Z,92.62
2017-12-30T00:54:50.731Z,92.65
2017-12-30T00:57:17.579Z,92.55
2017-12-30T00:59:44.378Z,92.63
2017-12-30T01:02:11.289Z,92.47
2017-12-30T01:04:40.218Z,92.47
2017-12-30T01:07:09.727Z,92.53
2017-12-30T01:09:36.628Z,92.59
2017-12-30T01:12:03.473Z,92.20
2017-12-30T01:14:30.251Z,92.10
2017-12-30T01:16:57.117Z,92.30
2017-12-30T01:19:23.920Z,92.18
2017-12-30T01:21:51.453Z,92.16
2017-12-30T01:24:18.261Z,91.90
2017-12-30T01:26:45.844Z,91.10
2017-12-30T01:29:13.368Z,91.63
2017-12-30T01:31:40.236Z,91.77
2017-12-30T01:34:07.069Z,91.52
2017-12-30T01:36:33.947Z,91.45
2017-12-30T01:39:00.740Z,91.16
2017-12-30T01:41:27.553Z,91.17
2017-12-30T01:43:54.449Z,90.68
2017-12-30T01:46:21.282Z,91.31
2017-12-30T01:49:02.251Z,91.04
2017-12-30T01:51:29.052Z,91.25
2017-12-30T01:53:55.892Z,91.13
2017-12-30T01:56:22.729Z,91.06
2017-12-30T01:58:49.512Z,90.94
2017-12-30T02:01:16.307Z,90.80
2017-12-30T02:03:43.137Z,90.41
2017-12-30T02:06:10.693Z,90.83
2017-12-30T02:08:37.514Z,90.75
2017-12-30T02:11:04.326Z,90.89
2017-12-30T02:13:31.195Z,91.00
2017-12-30T02:15:58.010Z,90.47
2017-12-30T02:18:24.831Z,90.85
2017-12-30T02:20:51.621Z,90.58
2017-12-30T02:23:18.443Z,90.79
2017-12-30T02:25:45.295Z,90.34
2017-12-30T02:28:12.172Z,90.59
2017-12-30T02:30:38.979Z,90.58
2017-12-30T02:33:06.536Z,91.20
2017-12-30T02:35:33.373Z,90.42
2017-12-30T02:38:00.169Z,90.37
2017-12-30T02:40:26.984Z,90.30
2017-12-30T02:42:53.771Z,90.32
2017-12-30T02:45:20.588Z,90.21
2017-12-30T02:47:47.363Z,90.60
2017-12-30T02:50:14.217Z,90.15
2017-12-30T02:52:41.031Z,90.11
2017-12-30T02:55:07.877Z,89.97
2017-12-30T02:57:34.842Z,90.15
2017-12-30T03:00:01.691Z,89.68
2017-12-30T03:02:28.739Z,89.54
2017-12-30T03:04:55.537Z,89.30
2017-12-30T03:07:22.383Z,89.70
2017-12-30T03:09:49.173Z,89.75
2017-12-30T03:12:15.985Z,89.31
2017-12-30T03:14:42.796Z,88.86
2017-12-30T03:17:10.532Z,89.56
2017-12-30T03:19:37.375Z,89.66
2017-12-30T03:22:04.239Z,90.10
2017-12-30T03:24:31.035Z,90.30
2017-12-30T03:26:57.858Z,90.01
2017-12-30T03:29:25.210Z,89.97
2017-12-30T03:31:51.990Z,90.28
2017-12-30T03:34:18.793Z,90.41
2017-12-30T03:36:45.630Z,90.24
2017-12-30T03:39:12.460Z,90.13
2017-12-30T03:41:39.260Z,90.35
2017-12-30T03:44:06.037Z,90.46
2017-12-30T03:46:32.839Z,90.46
2017-12-30T03:48:59.880Z,90.20
2017-12-30T03:51:26.684Z,90.42
2017-12-30T03:53:53.501Z,90.12
2017-12-30T03:56:21.080Z,90.31
2017-12-30T03:58:47.864Z,90.58
2017-12-30T04:01:14.631Z,89.74
2017-12-30T04:03:41.514Z,89.90
2017-12-30T04:06:08.266Z,89.79
2017-12-30T04:08:35.012Z,89.89
2017-12-30T04:11:01.834Z,89.57
2017-12-30T04:13:29.413Z,90.02
2017-12-30T04:15:56.157Z,89.83
2017-12-30T04:18:22.959Z,90.41
2017-12-30T04:20:49.775Z,90.35
2017-12-30T04:23:16.563Z,90.35
2017-12-30T04:25:44.098Z,90.44
2017-12-30T04:28:10.896Z,90.25
2017-12-30T04:30:38.557Z,90.15
2017-12-30T04:33:05.448Z,90.49
2017-12-30T04:35:32.263Z,90.35
2017-12-30T04:37:59.060Z,90.21
2017-12-30T04:40:26.658Z,89.88
2017-12-30T04:42:53.992Z,90.01
2017-12-30T04:45:21.665Z,89.44
2017-12-30T04:47:54.013Z,89.50
2017-12-30T04:50:21.516Z,89.77
2017-12-30T04:52:54.743Z,89.37
2017-12-30T04:55:21.586Z,89.77
2017-12-30T04:57:49.488Z,89.68
2017-12-30T05:00:22.319Z,89.60
2017-12-30T05:02:50.034Z,89.50
2017-12-30T05:05:16.824Z,89.08
2017-12-30T05:07:44.510Z,89.31
2017-12-30T05:10:12.208Z,89.77
2017-12-30T05:12:40.574Z,89.84
2017-12-30T05:15:07.894Z,89.47
2017-12-30T05:17:34.725Z,89.36
2017-12-30T05:20:01.882Z,89.47
2017-12-30T05:22:28.660Z,89.68
2017-12-30T05:24:55.772Z,89.51
2017-12-30T05:27:23.055Z,89.56
2017-12-30T05:29:50.632Z,89.30
2017-12-30T05:32:17.580Z,89.70
2017-12-30T05:34:47.394Z,89.62
2017-12-30T05:37:14.256Z,89.42
2017-12-30T05:39:41.107Z,89.70
2017-12-30T05:42:08.607Z,89.47
2017-12-30T05:44:36.027Z,89.47
2017-12-30T05:47:02.899Z,88.94
2017-12-30T05:49:30.924Z,89.59
2017-12-30T05:51:58.340Z,89.86
2017-12-30T05:54:25.404Z,89.98
2017-12-30T05:56:55.104Z,90.50
2017-12-30T05:59:28.409Z,90.63
2017-12-30T06:01:55.198Z,91.02
2017-12-30T06:04:22.376Z,91.47
2017-12-30T06:06:54.424Z,92.11
2017-12-30T06:09:27.442Z,92.48
2017-12-30T06:11:55.255Z,93.00
2017-12-30T06:14:22.052Z,93.11
2017-12-30T06:16:54.504Z,93.44
2017-12-30T06:19:22.375Z,93.44
2017-12-30T06:21:49.546Z,93.77
2017-12-30T06:24:18.298Z,94.04
2017-12-30T06:26:45.625Z,94.02
2017-12-30T06:29:12.416Z,94.30
2017-12-30T06:31:44.433Z,94.48
2017-12-30T06:34:11.316Z,94.59
2017-12-30T06:36:38.057Z,94.77
2017-12-30T06:39:08.862Z,94.74
2017-12-30T06:41:41.300Z,94.84
2017-12-30T06:44:08.124Z,94.66
2017-12-30T06:46:37.075Z,94.64
2017-12-30T06:49:09.585Z,94.70
2017-12-30T06:51:43.440Z,94.45
2017-12-30T06:54:10.320Z,94.46
2017-12-30T06:56:37.224Z,94.67
2017-12-30T06:59:06.015Z,94.66
2017-12-30T07:01:33.808Z,94.80
2017-12-30T07:04:00.686Z,94.89
2017-12-30T07:06:28.582Z,94.88
2017-12-30T07:09:00.873Z,95.24
2017-12-30T07:11:32.899Z,95.56
2017-12-30T07:13:59.969Z,95.44
2017-12-30T07:16:28.581Z,95.14
2017-12-30T07:18:55.666Z,95.45
2017-12-30T07:21:27.764Z,95.58
2017-12-30T07:23:59.985Z,95.52
2017-12-30T07:26:30.095Z,95.44
2017-12-30T07:28:58.789Z,95.39
2017-12-30T07:31:33.716Z,95.51
2017-12-30T07:34:00.579Z,95.62
2017-12-30T07:36:27.509Z,96.03
2017-12-30T07:38:54.499Z,95.86
2017-12-30T07:41:21.742Z,96.63
2017-12-30T07:43:54.258Z,96.19
2017-12-30T07:46:26.915Z,96.22
2017-12-30T07:48:54.227Z,96.07
2017-12-30T07:51:21.622Z,96.37
2017-12-30T07:53:49.903Z,96.30
2017-12-30T07:56:16.814Z,96.42
2017-12-30T07:58:43.789Z,96.32
2017-12-30T08:01:11.743Z,96.44
2017-12-30T08:03:38.762Z,96.62
2017-12-30T08:06:11.923Z,96.54
2017-12-30T08:08:39.521Z,96.21
2017-12-30T08:11:06.522Z,96.55
2017-12-30T08:13:33.617Z,96.90
2017-12-30T08:16:06.592Z,96.59
2017-12-30T08:18:45.403Z,96.63
2017-12-30T08:21:12.754Z,96.53
2017-12-30T08:23:39.655Z,96.99
2017-12-30T08:26:06.547Z,96.89
2017-12-30T08:28:33.469Z,96.89
2017-12-30T08:31:00.914Z,97.07
2017-12-30T08:33:33.483Z,97.22
2017-12-30T08:36:00.413Z,97.28
2017-12-30T08:38:27.342Z,97.45
2017-12-30T08:40:59.817Z,98.08
2017-12-30T08:43:27.605Z,97.91
2017-12-30T08:45:59.840Z,98.11
2017-12-30T08:48:27.884Z,98.08
2017-12-30T08:50:55.240Z,98.29
2017-12-30T08:53:22.248Z,98.38
2017-12-30T08:55:50.337Z,98.49
2017-12-30T08:58:17.473Z,98.78
2017-12-30T09:00:44.391Z,98.64
2017-12-30T09:03:17.051Z,98.76
2017-12-30T09:05:49.164Z,98.65
2017-12-30T09:08:16.107Z,98.55
2017-12-30T09:10:46.822Z,98.40
2017-12-30T09:13:13.968Z,98.53
2017-12-30T09:15:40.744Z,98.53
2017-12-30T09:18:08.435Z,98.67
2017-12-30T09:20:37.070Z,98.62
2017-12-30T09:23:04.128Z,98.54
2017-12-30T09:25:36.500Z,98.85
2017-12-30T09:28:08.521Z,98.89
2017-12-30T09:30:39.517Z,98.93
2017-12-30T09:33:07.134Z,98.94
2017-12-30T09:35:34.112Z,99.19
2017-12-30T09:38:00.920Z,99.14
2017-12-30T09:40:32.919Z,99.07
2017-12-30T09:43:00.040Z,98.24
2017-12-30T09:45:26.930Z,98.40
2017-12-30T09:47:54.532Z,98.80
2017-12-30T09:50:26.683Z,98.69
2017-12-30T09:52:54.226Z,98.37
2017-12-30T09:55:22.431Z,99.00
2017-12-30T09:57:54.614Z,99.11
2017-12-30T10:00:24.768Z,99.08
2017-12-30T10:02:51.710Z,99.59
2017-12-30T10:05:19.124Z,99.62
2017-12-30T10:07:49.132Z,98.97
2017-12-30T10:10:15.943Z,99.67
2017-12-30T10:12:48.019Z,100.00
2017-12-30T10:15:15.459Z,100.00
2017-12-30T10:17:46.096Z,100.00
2017-12-30T10:20:13.888Z,100.00
2017-12-30T10:22:41.542Z,100.00
2017-12-30T10:25:08.562Z,100.00
2017-12-30T10:27:36.606Z,100.00
2017-12-30T10:30:08.618Z,100.00
2017-12-30T10:32:37.163Z,100.00
2017-12-30T10:35:04.319Z,100.00
2017-12-30T10:37:31.769Z,100.00
2017-12-30T10:40:03.654Z,100.00
2017-12-30T10:42:35.606Z,100.00
2017-12-30T10:45:03.216Z,100.00
2017-12-30T10:47:30.093Z,100.00
2017-12-30T10:49:57.914Z,100.00
2017-12-30T10:52:25.122Z,100.00
2017-12-30T10:54:57.152Z,100.00
2017-12-30T10:57:24.088Z,100.00
2017-12-30T10:59:51.341Z,100.00
2017-12-30T11:02:18.322Z,100.00
2017-12-30T11:04:50.620Z,100.00
2017-12-30T11:07:17.424Z,100.00
2017-12-30T11:09:45.276Z,100.00
2017-12-30T11:12:13.008Z,100.00
2017-12-30T11:14:39.900Z,100.00
2017-12-30T11:17:09.893Z,100.00
2017-12-30T11:19:37.662Z,100.00
2017-12-30T11:22:05.225Z,100.00
2017-12-30T11:24:32.499Z,100.00
2017-12-30T11:26:59.856Z,100.00
2017-12-30T11:29:28.569Z,100.00
2017-12-30T11:31:55.485Z,100.00
2017-12-30T11:34:22.522Z,100.00
2017-12-30T11:36:49.571Z,100.00
2017-12-30T11:39:17.162Z,100.00
2017-12-30T11:41:44.433Z,100.00
2017-12-30T11:44:11.649Z,100.00
2017-12-30T11:46:39.806Z,100.00
2017-12-30T11:49:12.788Z,100.00
2017-12-30T11:51:40.154Z,100.00
2017-12-30T11:54:12.428Z,100.00
2017-12-30T11:56:40.358Z,100.00
2017-12-30T11:59:10.607Z,100.00
2017-12-30T12:01:38.563Z,100.00
2017-12-30T12:04:06.171Z,100.00
2017-12-30T12:06:38.290Z,100.00
2017-12-30T12:09:05.189Z,100.00
2017-12-30T12:11:34.316Z,100.00
2017-12-30T12:14:01.275Z,100.00
2017-12-30T12:16:28.085Z,100.00
2017-12-30T12:18:55.499Z,100.00
2017-12-30T12:21:22.873Z,100.00
2017-12-30T12:23:50.484Z,100.00
2017-12-30T12:26:18.309Z,100.00
2017-12-30T12:28:45.145Z,100.00
2017-12-30T12:31:12.365Z,100.00
2017-12-30T12:33:44.555Z,100.00
2017-12-30T12:36:11.456Z,100.00
2017-12-30T12:38:38.293Z,100.00
2017-12-30T12:41:06.187Z,100.00
2017-12-30T12:43:33.344Z,100.00
2017-12-30T12:46:07.415Z,100.00
2017-12-30T12:48:40.451Z,100.00
2017-12-30T12:51:14.714Z,99.78
2017-12-30T12:53:41.660Z,100.00
2017-12-30T12:56:10.999Z,100.00
2017-12-30T12:58:37.968Z,100.00
2017-12-30T13:01:04.979Z,100.00
2017-12-30T13:03:32.360Z,100.00
2017-12-30T13:05:59.320Z,100.00
2017-12-30T13:08:27.118Z,99.86
2017-12-30T13:10:55.147Z,100.00
2017-12-30T13:13:22.134Z,99.02
2017-12-30T13:15:55.313Z,100.00
2017-12-30T13:18:23.308Z,100.00
2017-12-30T13:20:50.248Z,99.60
2017-12-30T13:23:18.476Z,97.95
2017-12-30T13:25:46.646Z,97.99
2017-12-30T13:28:14.011Z,99.96
2017-12-30T13:30:42.998Z,99.20
2017-12-30T13:33:10.148Z,99.36
2017-12-30T13:35:38.640Z,100.00
2017-12-30T13:38:10.870Z,97.93
2017-12-30T13:40:39.130Z,99.58
2017-12-30T13:43:06.114Z,99.60
2017-12-30T13:45:38.287Z,99.38
2017-12-30T13:48:10.427Z,99.69
2017-12-30T13:50:37.298Z,97.97
2017-12-30T13:53:05.421Z,97.34
2017-12-30T13:55:32.699Z,98.85
2017-12-30T13:57:59.960Z,96.90
2017-12-30T14:00:26.982Z,97.93
2017-12-30T14:02:54.302Z,96.79
2017-12-30T14:05:21.412Z,96.46
2017-12-30T14:07:48.541Z,97.04
2017-12-30T14:10:15.433Z,96.33
2017-12-30T14:12:49.028Z,95.27
2017-12-30T14:15:16.601Z,94.07
2017-12-30T14:17:43.640Z,96.61
2017-12-30T14:20:13.586Z,96.30
2017-12-30T14:22:45.950Z,93.58
2017-12-30T14:25:12.972Z,94.27
2017-12-30T14:27:40.083Z,94.58
2017-12-30T14:30:07.074Z,95.75
2017-12-30T14:32:40.058Z,94.53
2017-12-30T14:35:07.283Z,92.99
2017-12-30T14:37:34.284Z,93.68
2017-12-30T14:40:01.334Z,93.01
2017-12-30T14:42:28.336Z,90.54
2017-12-30T14:44:55.994Z,94.29
2017-12-30T14:47:23.022Z,93.95
2017-12-30T14:49:49.823Z,94.59
2017-12-30T14:52:18.580Z,93.80
2017-12-30T14:54:47.400Z,92.98
2017-12-30T14:57:14.758Z,93.00
2017-12-30T14:59:42.554Z,92.62
2017-12-30T15:02:15.087Z,92.88
2017-12-30T15:04:48.191Z,93.77
2017-12-30T15:07:15.128Z,93.77
2017-12-30T15:09:42.040Z,90.78
2017-12-30T15:12:09.787Z,93.85
2017-12-30T15:14:37.016Z,91.82
2017-12-30T15:17:05.131Z,91.99
2017-12-30T15:19:32.111Z,91.59
2017-12-30T15:22:04.632Z,89.20
2017-12-30T15:24:31.638Z,91.88
2017-12-30T15:26:58.762Z,90.38
2017-12-30T15:29:31.179Z,94.09
2017-12-30T15:31:59.136Z,93.61
2017-12-30T15:34:26.183Z,93.48
2017-12-30T15:36:54.156Z,94.05
2017-12-30T15:39:21.027Z,90.63
2017-12-30T15:41:47.840Z,90.90
2017-12-30T15:44:15.907Z,90.49
2017-12-30T15:46:43.175Z,89.40
2017-12-30T15:49:11.052Z,90.75
2017-12-30T15:51:47.941Z,93.22
2017-12-30T16:07:19.597Z,90.11
2017-12-30T16:09:48.277Z,92.50
2017-12-30T16:12:15.648Z,91.08
2017-12-30T16:14:43.801Z,91.79
2017-12-30T16:17:12.593Z,88.16
2017-12-30T16:19:39.782Z,90.94
2017-12-30T16:22:06.707Z,90.45
2017-12-30T16:24:38.869Z,87.92
2017-12-30T16:27:11.862Z,91.51
2017-12-30T16:29:45.485Z,89.25
2017-12-30T16:32:13.188Z,90.58
2017-12-30T16:34:42.205Z,88.58
2017-12-30T16:37:10.363Z,88.66
2017-12-30T16:39:37.169Z,88.81
2017-12-30T16:42:04.209Z,89.26
2017-12-30T16:44:36.787Z,90.47
2017-12-30T16:47:03.783Z,90.23
2017-12-30T16:49:32.604Z,90.85
2017-12-30T16:52:06.443Z,88.68
2017-12-30T16:54:33.369Z,90.24
2017-12-30T16:57:01.445Z,91.04
2017-12-30T16:59:33.925Z,88.14
2017-12-30T17:02:00.754Z,90.16
2017-12-30T17:04:28.712Z,91.02
2017-12-30T17:06:55.749Z,91.17
2017-12-30T17:09:22.571Z,89.82
2017-12-30T17:11:55.475Z,88.03
2017-12-30T17:14:27.981Z,89.13
2017-12-30T17:16:54.934Z,89.43
2017-12-30T17:19:24.950Z,90.30
2017-12-30T17:21:58.420Z,91.41
2017-12-30T17:24:32.427Z,89.48
2017-12-30T17:26:59.295Z,87.55
2017-12-30T17:29:27.183Z,88.44
2017-12-30T17:31:59.993Z,88.99
2017-12-30T17:34:28.283Z,89.02
2017-12-30T17:36:56.867Z,90.66
2017-12-30T17:39:23.848Z,91.04
2017-12-30T17:41:52.732Z,89.82
2017-12-30T17:44:20.774Z,89.97
2017-12-30T17:46:48.658Z,89.82
2017-12-30T17:49:15.671Z,90.56
2017-12-30T17:51:42.670Z,90.19
2017-12-30T17:54:10.317Z,89.43
2017-12-30T17:56:37.646Z,90.28
2017-12-30T17:59:05.001Z,90.02
2017-12-30T18:01:32.770Z,90.34
2017-12-30T18:04:00.258Z,88.10
2017-12-30T18:06:33.412Z,91.00
2017-12-30T18:09:03.915Z,91.51
2017-12-30T18:11:30.796Z,90.99
2017-12-30T18:14:02.896Z,90.52
2017-12-30T18:16:35.121Z,90.56
2017-12-30T18:19:03.469Z,90.58
2017-12-30T18:21:31.415Z,91.48
2017-12-30T18:24:01.754Z,89.86
2017-12-30T18:26:29.669Z,89.83
2017-12-30T18:28:56.635Z,91.01
2017-12-30T18:31:25.204Z,90.77
2017-12-30T18:33:52.095Z,91.52
2017-12-30T18:36:19.466Z,91.18
2017-12-30T18:38:46.588Z,90.51
2017-12-30T18:41:14.129Z,91.56
2017-12-30T18:43:41.938Z,91.79
2017-12-30T18:46:09.983Z,90.55
2017-12-30T18:48:36.906Z,90.44
2017-12-30T18:51:04.721Z,92.02
2017-12-30T18:53:32.014Z,90.17
2017-12-30T18:56:04.296Z,92.11
2017-12-30T18:58:31.334Z,91.77
2017-12-30T19:01:03.637Z,91.99
2017-12-30T19:03:31.829Z,91.32
2017-12-30T19:05:59.640Z,91.91
2017-12-30T19:08:27.759Z,91.12
2017-12-30T19:10:58.652Z,91.41
2017-12-30T19:13:31.685Z,89.29
2017-12-30T19:15:58.812Z,90.83
2017-12-30T19:18:26.355Z,91.31
2017-12-30T19:20:54.714Z,91.26
2017-12-30T19:23:23.070Z,89.69
2017-12-30T19:25:55.024Z,89.50
2017-12-30T19:28:23.877Z,88.48
2017-12-30T19:30:51.427Z,91.27
2017-12-30T19:33:21.504Z,90.93
2017-12-30T19:35:48.507Z,89.85
2017-12-30T19:38:15.549Z,90.50
2017-12-30T19:40:42.836Z,89.05
2017-12-30T19:43:11.762Z,88.84
2017-12-30T19:45:39.802Z,90.14
2017-12-30T19:48:06.954Z,91.20
2017-12-30T19:50:33.881Z,90.18
2017-12-30T19:53:01.112Z,90.84
2017-12-30T19:55:28.528Z,90.04
2017-12-30T19:57:55.865Z,89.86
2017-12-30T20:00:23.190Z,90.95
2017-12-30T20:02:51.567Z,87.79
2017-12-30T20:05:19.660Z,89.92
2017-12-30T20:07:47.459Z,91.13
2017-12-30T20:10:15.319Z,91.02
2017-12-30T20:12:43.787Z,89.73
2017-12-30T20:15:12.191Z,90.78
2017-12-30T20:17:40.589Z,89.37
2017-12-30T20:20:08.911Z,89.61
2017-12-30T20:22:37.882Z,90.52
2017-12-30T20:25:07.112Z,90.23
2017-12-30T20:27:36.256Z,91.07
2017-12-30T20:30:09.034Z,90.47
2017-12-30T20:32:37.556Z,89.61
2017-12-30T20:35:10.669Z,90.54
2017-12-30T20:37:44.832Z,90.50
2017-12-30T20:40:14.954Z,91.08
2017-12-30T20:42:46.161Z,89.98
2017-12-30T20:45:14.978Z,90.21
2017-12-30T20:47:44.506Z,90.83
2017-12-30T20:50:13.521Z,89.11
2017-12-30T20:52:43.168Z,90.40
2017-12-30T20:55:12.278Z,89.87
2017-12-30T20:57:48.285Z,90.08
2017-12-30T21:00:17.540Z,89.75
2017-12-30T21:02:59.670Z,89.59
2017-12-30T21:05:29.058Z,90.72
2017-12-30T21:08:00.361Z,90.32
2017-12-30T21:10:34.702Z,91.14
2017-12-30T21:13:07.009Z,91.19
2017-12-30T21:15:35.825Z,88.85
2017-12-30T21:18:04.839Z,88.67
2017-12-30T21:20:34.669Z,90.65
2017-12-30T21:23:04.915Z,89.50
2017-12-30T21:25:38.125Z,90.57
2017-12-30T21:28:08.547Z,91.29
2017-12-30T21:30:37.599Z,89.29
2017-12-30T21:33:06.313Z,90.71
2017-12-30T21:35:35.147Z,91.35
2017-12-30T21:38:05.092Z,89.94
2017-12-30T21:40:35.210Z,90.82
2017-12-30T21:43:05.006Z,90.66
2017-12-30T21:45:33.805Z,91.05
2017-12-30T21:48:02.606Z,90.53
2017-12-30T21:50:31.343Z,91.12
2017-12-30T21:53:00.537Z,90.11
2017-12-30T21:55:30.123Z,90.30
2017-12-30T21:57:57.326Z,90.99
2017-12-30T22:00:25.955Z,90.97
2017-12-30T22:02:55.206Z,90.51
2017-12-30T22:05:24.002Z,91.02
2017-12-30T22:07:52.232Z,91.36
2017-12-30T22:10:21.449Z,91.35
2017-12-30T22:12:52.676Z,91.62
2017-12-30T22:15:21.743Z,90.73
2017-12-30T22:17:54.920Z,90.04
2017-12-30T22:20:24.546Z,90.68
2017-12-30T22:22:59.230Z,90.98
2017-12-30T22:25:27.961Z,91.20
2017-12-30T22:27:57.300Z,90.33
2017-12-30T22:30:25.915Z,90.45
2017-12-30T22:32:53.422Z,90.68
2017-12-30T22:35:21.279Z,90.52
2017-12-30T22:37:48.405Z,90.21
2017-12-30T22:40:15.694Z,90.46
2017-12-30T22:42:48.010Z,90.49
2017-12-30T22:45:15.052Z,91.26
2017-12-30T22:47:44.221Z,91.71
2017-12-30T22:50:12.164Z,91.47
2017-12-30T22:52:40.590Z,91.75
2017-12-30T22:55:09.561Z,92.05
2017-12-30T22:57:40.502Z,90.40
2017-12-30T23:00:08.762Z,91.00
2017-12-30T23:02:37.378Z,91.83
2017-12-30T23:05:10.477Z,91.69
2017-12-30T23:07:39.847Z,89.38
2017-12-30T23:10:08.040Z,91.56
2017-12-30T23:12:35.210Z,91.85
2017-12-30T23:15:03.248Z,91.74
2017-12-30T23:17:36.175Z,91.11
2017-12-30T23:20:03.905Z,92.19
2017-12-30T23:22:32.309Z,91.81
2017-12-30T23:25:00.292Z,92.03
2017-12-30T23:27:27.185Z,91.77
2017-12-30T23:29:54.099Z,92.30
2017-12-30T23:32:21.039Z,92.70
2017-12-30T23:34:48.014Z,91.67
2017-12-30T23:37:15.538Z,91.51
2017-12-30T23:39:42.439Z,90.86
2017-12-30T23:42:09.263Z,92.56
2017-12-30T23:44:36.864Z,92.63
2017-12-30T23:47:04.972Z,93.64
2017-12-30T23:49:32.690Z,93.56
2017-12-30T23:52:07.047Z,93.73
2017-12-30T23:54:34.621Z,93.45
2017-12-30T23:57:02.388Z,93.29
2017-12-30T23:59:29.548Z,93.39
